Time,TemperatureF,DewpointF,PressureIn,WindDirection,WindDirectionDegrees,WindSpeedMPH,WindSpeedGustMPH,Humidity,HourlyPrecipIn,Conditions,Clouds,dailyrainin,SolarRadiationWatts/m^2,SoftwareType,DateUTC
2013-05-07 00:00:00,59.0,37.0,-100.00,NE,45,2.0,-999.0,43,-99.99,,,-99.99,0.000000,,2013-05-07 04:00:00,
2013-05-07 00:42:00,59.0,37.0,-100.00,NE,45,2.0,-999.0,43,-99.99,,,-99.99,0.000000,,2013-05-07 04:42:00,
2013-05-07 00:53:00,59.0,37.0,-100.00,NE,45,2.0,-999.0,43,-99.99,,,-99.99,0.000000,,2013-05-07 04:53:00,
2013-05-07 01:00:00,61.0,34.0,-100.00,ENE,67,2.0,-999.0,35,-99.99,,,-99.99,0.000000,,2013-05-07 05:00:00,
2013-05-07 01:42:00,61.0,34.0,-100.00,ENE,67,2.0,-999.0,35,-99.99,,,-99.99,0.000000,,2013-05-07 05:42:00,
2013-05-07 01:52:00,61.0,34.0,-100.00,ENE,67,2.0,-999.0,35,-99.99,,,-99.99,0.000000,,2013-05-07 05:52:00,
2013-05-07 02:00:00,58.0,36.0,-100.00,NE,45,2.0,-999.0,42,-99.99,,,-99.99,0.000000,,2013-05-07 06:00:00,
2013-05-07 02:42:00,58.0,36.0,-100.00,NE,45,2.0,-999.0,42,-99.99,,,-99.99,0.000000,,2013-05-07 06:42:00,
2013-05-07 02:52:00,58.0,36.0,-100.00,NE,45,2.0,-999.0,42,-99.99,,,-99.99,0.000000,,2013-05-07 06:52:00,
2013-05-07 03:00:00,55.0,39.0,-100.00,NE,45,3.0,-999.0,54,-99.99,,,-99.99,0.000000,,2013-05-07 07:00:00,
2013-05-07 03:42:00,55.0,39.0,-100.00,NE,45,3.0,-999.0,54,-99.99,,,-99.99,0.000000,,2013-05-07 07:42:00,
2013-05-07 03:53:00,55.0,39.0,-100.00,NE,45,3.0,-999.0,54,-99.99,,,-99.99,0.000000,,2013-05-07 07:53:00,
2013-05-07 04:00:00,53.0,40.0,-100.00,ENE,67,1.0,-999.0,60,-99.99,,,-99.99,0.000000,,2013-05-07 08:00:00,
2013-05-07 04:42:00,53.0,40.0,-100.00,ENE,67,1.0,-999.0,60,-99.99,,,-99.99,0.000000,,2013-05-07 08:42:00,
2013-05-07 04:52:00,53.0,40.0,-100.00,ENE,67,1.0,-999.0,60,-99.99,,,-99.99,0.000000,,2013-05-07 08:52:00,
2013-05-07 05:00:00,53.0,40.0,-100.00,NE,45,1.0,-999.0,62,-99.99,,,-99.99,0.000000,,2013-05-07 09:00:00,
2013-05-07 05:43:00,53.0,40.0,-100.00,NE,45,1.0,-999.0,62,-99.99,,,-99.99,0.000000,,2013-05-07 09:43:00,
2013-05-07 05:52:00,53.0,40.0,-100.00,NE,45,1.0,-999.0,62,-99.99,,,-99.99,0.000000,,2013-05-07 09:52:00,
2013-05-07 06:00:00,51.0,40.0,-100.00,NE,45,3.0,-999.0,65,-99.99,,,-99.99,0.000000,,2013-05-07 10:00:00,
2013-05-07 06:42:00,51.0,40.0,-100.00,NE,45,3.0,-999.0,65,-99.99,,,-99.99,0.000000,,2013-05-07 10:42:00,
2013-05-07 06:52:00,51.0,40.0,-100.00,NE,45,3.0,-999.0,65,-99.99,,,-99.99,0.000000,,2013-05-07 10:52:00,
2013-05-07 07:00:00,50.0,40.0,-100.00,NE,45,1.0,-999.0,68,-99.99,,,-99.99,9.280000,,2013-05-07 11:00:00,
2013-05-07 07:42:00,50.0,40.0,-100.00,NE,45,1.0,-999.0,68,-99.99,,,-99.99,9.280000,,2013-05-07 11:42:00,
2013-05-07 07:52:00,50.0,40.0,-100.00,NE,45,1.0,-999.0,68,-99.99,,,-99.99,9.280000,,2013-05-07 11:52:00,
2013-05-07 08:00:00,53.0,42.0,-100.00,NE,45,1.0,-999.0,67,-99.99,,,-99.99,112.519997,,2013-05-07 12:00:00,
2013-05-07 08:42:00,53.0,42.0,-100.00,NE,45,1.0,-999.0,67,-99.99,,,-99.99,112.519997,,2013-05-07 12:42:00,
2013-05-07 08:52:00,53.0,42.0,-100.00,NE,45,1.0,-999.0,67,-99.99,,,-99.99,112.519997,,2013-05-07 12:52:00,
2013-05-07 09:00:00,57.0,44.0,-100.00,East,90,4.0,-999.0,63,-99.99,,,-99.99,241.279999,,2013-05-07 13:00:00,
2013-05-07 09:42:00,57.0,44.0,-100.00,East,90,4.0,-999.0,63,-99.99,,,-99.99,241.279999,,2013-05-07 13:42:00,
2013-05-07 09:52:00,57.0,44.0,-100.00,East,90,4.0,-999.0,63,-99.99,,,-99.99,241.279999,,2013-05-07 13:52:00,
2013-05-07 10:00:00,63.0,46.0,-100.00,East,90,4.0,-999.0,53,-99.99,,,-99.99,411.799988,,2013-05-07 14:00:00,
2013-05-07 10:42:00,63.0,46.0,-100.00,East,90,4.0,-999.0,53,-99.99,,,-99.99,411.799988,,2013-05-07 14:42:00,
2013-05-07 10:52:00,63.0,46.0,-100.00,East,90,4.0,-999.0,53,-99.99,,,-99.99,411.799988,,2013-05-07 14:52:00,
2013-05-07 11:00:00,67.0,44.0,-100.00,East,90,4.0,-999.0,44,-99.99,,,-99.99,464.000000,,2013-05-07 15:00:00,
2013-05-07 11:43:00,67.0,44.0,-100.00,East,90,4.0,-999.0,44,-99.99,,,-99.99,464.000000,,2013-05-07 15:43:00,
2013-05-07 11:53:00,67.0,44.0,-100.00,East,90,4.0,-999.0,44,-99.99,,,-99.99,464.000000,,2013-05-07 15:53:00,
2013-05-07 14:00:00,74.0,43.0,-100.00,ESE,112,6.0,-999.0,33,-99.99,,,-99.99,765.599976,,2013-05-07 18:00:00,
2013-05-07 14:42:00,74.0,43.0,-100.00,ESE,112,6.0,-999.0,33,-99.99,,,-99.99,765.599976,,2013-05-07 18:42:00,
2013-05-07 14:52:00,74.0,43.0,-100.00,ESE,112,6.0,-999.0,33,-99.99,,,-99.99,765.599976,,2013-05-07 18:52:00,
2013-05-07 16:00:00,75.0,45.0,-100.00,SE,135,6.0,-999.0,33,-99.99,,,-99.99,788.799988,,2013-05-07 20:00:00,
2013-05-07 16:42:00,75.0,45.0,-100.00,SE,135,6.0,-999.0,33,-99.99,,,-99.99,788.799988,,2013-05-07 20:42:00,
2013-05-07 16:52:00,75.0,45.0,-100.00,SE,135,6.0,-999.0,33,-99.99,,,-99.99,788.799988,,2013-05-07 20:52:00,
2013-05-07 17:00:00,75.0,45.0,-100.00,ESE,112,5.0,-999.0,33,-99.99,,,-99.99,502.279999,,2013-05-07 21:00:00,
2013-05-07 17:43:00,75.0,45.0,-100.00,ESE,112,5.0,-999.0,33,-99.99,,,-99.99,502.279999,,2013-05-07 21:43:00,
2013-05-07 17:53:00,75.0,45.0,-100.00,ESE,112,5.0,-999.0,33,-99.99,,,-99.99,502.279999,,2013-05-07 21:53:00,
2013-05-07 18:00:00,76.0,44.0,-100.00,ESE,112,5.0,-999.0,32,-99.99,,,-99.99,503.440002,,2013-05-07 22:00:00,
2013-05-07 18:42:00,76.0,44.0,-100.00,ESE,112,5.0,-999.0,32,-99.99,,,-99.99,503.440002,,2013-05-07 22:42:00,
2013-05-07 18:52:00,76.0,44.0,-100.00,ESE,112,5.0,-999.0,32,-99.99,,,-99.99,503.440002,,2013-05-07 22:52:00,
2013-05-07 19:00:00,75.0,45.0,-100.00,ESE,112,5.0,-999.0,33,-99.99,,,-99.99,270.279999,,2013-05-07 23:00:00,
2013-05-07 19:42:00,75.0,45.0,-100.00,ESE,112,5.0,-999.0,33,-99.99,,,-99.99,270.279999,,2013-05-07 23:42:00,
2013-05-07 19:52:00,75.0,45.0,-100.00,ESE,112,5.0,-999.0,33,-99.99,,,-99.99,270.279999,,2013-05-07 23:52:00,
2013-05-07 20:00:00,73.0,51.0,-100.00,South,180,0.0,-999.0,44,-99.99,,,-99.99,116.000000,,2013-05-08 00:00:00,
2013-05-07 20:42:00,73.0,51.0,-100.00,South,180,0.0,-999.0,44,-99.99,,,-99.99,116.000000,,2013-05-08 00:42:00,
2013-05-07 20:52:00,73.0,51.0,-100.00,South,180,0.0,-999.0,44,-99.99,,,-99.99,116.000000,,2013-05-08 00:52:00,
2013-05-07 21:00:00,70.0,50.0,-100.00,SSE,157,0.0,-999.0,49,-99.99,,,-99.99,23.200001,,2013-05-08 01:00:00,
2013-05-07 21:42:00,70.0,50.0,-100.00,SSE,157,0.0,-999.0,49,-99.99,,,-99.99,23.200001,,2013-05-08 01:42:00,
2013-05-07 21:52:00,70.0,50.0,-100.00,SSE,157,0.0,-999.0,49,-99.99,,,-99.99,23.200001,,2013-05-08 01:52:00,
2013-05-07 22:00:00,65.0,43.0,-100.00,NW,315,5.0,-999.0,45,-99.99,,,-99.99,0.000000,,2013-05-08 02:00:00,
2013-05-07 22:42:00,65.0,43.0,-100.00,NW,315,5.0,-999.0,45,-99.99,,,-99.99,0.000000,,2013-05-08 02:42:00,
2013-05-07 22:52:00,65.0,43.0,-100.00,NW,315,5.0,-999.0,45,-99.99,,,-99.99,0.000000,,2013-05-08 02:52:00,
2013-05-07 23:00:00,63.0,42.0,-100.00,NW,315,5.0,-999.0,46,-99.99,,,-99.99,0.000000,,2013-05-08 03:00:00,
2013-05-07 23:43:00,63.0,42.0,-100.00,NW,315,5.0,-999.0,46,-99.99,,,-99.99,0.000000,,2013-05-08 03:43:00,
2013-05-07 23:52:00,63.0,42.0,-100.00,NW,315,5.0,-999.0,46,-99.99,,,-99.99,0.000000,,2013-05-08 03:52:00,